WIHHWIPP

Guest
Details From WIHH - Jakarta Halim Perdanakusuma Intl
To WIPP - Palembang Sultan Mahmud Badaruddin Ii
Flight Number -
Tags Generated
Created
Modified
Stats Distance 242 nm / 448 km
Max Altitude 0 ft / 0 m
Waypoints 3
Social Downloads 2
Likes 0
Share VATSIM

Download

Looking for another format? Having issues loading an existing format? Contact us
Advertisement - Login to hide

Notes

Generated

Route

WIHH WW WIPP

ID Type Via Altitude Latitude Longitude Leg Dist Tot Dist Heading (true) Name
O WIHH APT - 0 ft / 0 m -6.27223˚ 106.87877˚ - 0 nm - -
WW NDB - 0 ft / 0 m -2.90528˚ 104.71567˚ 240 nm 240 nm 327° / 327° PALEMBANG NDB
O WIPP APT - 0 ft / 0 m -2.89342˚ 104.69270˚ 1 nm 241 nm 297° / 297° -

Altitude Profile

Advertisement - Login to hide

Weather


0- 5 10 15 20 25 30 35+ Temperature / ° C

Clouds and Precipitation
Forecast for 2017-12-15 12:00 UTC. Updated 2 hours ago

Ground ~20,000 ft ~40,000 ft Winds

WIHH

Details ICAO WIHH (HLP)
Name Jakarta Halim Perdanakusuma Intl
Region Indonesia
Timezone Asia/Jakarta (UTC+7.0)
Stats Elevation 84 ft / 26 m (AMSL)
Location -6.266608° 106.891117°
Runways 1
Magnetic Variation 0.650° E

METAR

WIHH 151200Z 16006KT 5000 -RA SCT018 26/24 Q1010 NOSIG

Decode

TAF

TAF WIHH 151100Z 1512/1612 23005KT 5000 -RA SCT020 BECMG 1514/1516 6000 FEW022 BECMG 1602/1604 27010KT 8000 SCT018

Decode

Departure Runways

ID Width Length Bearing (true) Bearing (mag) Surface Threshold Offset Overrun Length
06 148 ft / 45 m 9,855 ft / 3,004 m 65.38° 64.73° Asphalt 0 ft / 0 m 0 ft / 0 m
24 148 ft / 45 m 9,855 ft / 3,004 m 245.38° 244.73° Asphalt 650 ft / 198 m 0 ft / 0 m

WIPP

Details ICAO WIPP (PLM)
Name Palembang Sultan Mahmud Badaruddin II
Region Indonesia
Timezone Asia/Jakarta (UTC+7.0)
Stats Elevation 37 ft / 11 m (AMSL)
Location -2.897661° 104.700716°
Runways 2
Magnetic Variation 0.427° E

METAR

WIPP 151230Z 05003KT 5000 -RA BKN012 FEW015CB 25/24 Q1010 RMKCB OVERHEAD

Decode

TAF

TAF TAF WIPP 150500Z 1506/1606 36005KT 9999 SCT012 PROB40 TEMPO 1510/1514 3000 TSRA BKN012 FEW015CB TEMPO 1520/1524 3000 BR

Decode

Destination Runways

ID Width Length Bearing (true) Bearing (mag) Surface Threshold Offset Overrun Length
11 148 ft / 45 m 8,206 ft / 2,501 m 112.90° 112.47° Asphalt 0 ft / 0 m 197 ft / 60 m
11L 148 ft / 45 m 6,965 ft / 2,123 m 112.50° 112.07° Asphalt 0 ft / 0 m 0 ft / 0 m
29 148 ft / 45 m 8,206 ft / 2,501 m 292.90° 292.47° Asphalt 0 ft / 0 m 197 ft / 60 m
29R 148 ft / 45 m 6,965 ft / 2,123 m 292.50° 292.07° Asphalt 0 ft / 0 m 0 ft / 0 m

Approach Navaids

Runway Type Ident Frequency Range Bearing (true) Bearing (mag) Slope Elevation
29 Localiser IPLB 110.50 MHz 18 nm / 33 km 292.83° 292.41° - 37 ft / 11 m (AMSL)
29 Glidescope IPLB 110.50 MHz 10 nm / 19 km 292.90° 292.47° 3.00° 37 ft / 11 m (AMSL)

Popular Alternatives